Time;durP1;ratioP1;P1;durP2;ratioP2;P2;SDS_P1;SDS_P2;PMS_P1;PMS_P2;Temp;Humidity;BMP_temperature;BMP_pressure;BME280_temperature;BME280_humidity;BME280_pressure;Samples;Min_cycle;Max_cycle;Signal;HPM_P1;HPM_P2
2022/02/27 00:01:34;;;;;;;;;;;24.00;45.80;;;;;;1511299;79;781;-70
2022/02/27 00:03:38;;;;;;;;;;;24.00;45.70;;;;;;1511253;79;699;-71
2022/02/27 00:05:40;;;;;;;;;;;24.00;45.90;;;;;;1511129;79;1149;-66
2022/02/27 00:07:42;;;;;;;;;;;24.00;45.80;;;;;;1512051;77;738;-70
2022/02/27 00:09:44;;;;;;;;;;;24.00;45.80;;;;;;1511279;78;708;-70
2022/02/27 00:11:48;;;;;;;;;;;24.00;45.80;;;;;;1511357;79;661;-70
2022/02/27 00:13:49;;;;;;;;;;;24.00;45.80;;;;;;1511008;79;1929;-70
2022/02/27 00:15:51;;;;;;;;;;;24.00;45.90;;;;;;1510343;77;1180;-70
2022/02/27 00:17:53;;;;;;;;;;;24.00;45.90;;;;;;1511237;77;730;-72
2022/02/27 00:19:54;;;;;;;;;;;24.00;45.80;;;;;;1511985;77;726;-70
2022/02/27 00:21:56;;;;;;;;;;;24.00;45.90;;;;;;1511241;77;803;-70
2022/02/27 00:23:58;;;;;;;;;;;23.90;45.90;;;;;;1511309;79;713;-71
2022/02/27 00:26:00;;;;;;;;;;;24.00;45.90;;;;;;1529227;77;1171;-70
2022/02/27 00:28:02;;;;;;;;;;;24.00;46.00;;;;;;1537276;77;645;-70
2022/02/27 00:30:06;;;;;;;;;;;24.00;46.00;;;;;;1513946;77;669;-70
2022/02/27 00:32:08;;;;;;;;;;;24.00;46.00;;;;;;1511110;78;705;-71
2022/02/27 00:34:10;;;;;;;;;;;24.00;46.00;;;;;;1511234;79;1926;-72
2022/02/27 00:36:12;;;;;;;;;;;24.10;46.10;;;;;;1511203;79;1129;-70
2022/02/27 00:38:13;;;;;;;;;;;24.00;46.00;;;;;;1511870;77;738;-70
2022/02/27 00:40:15;;;;;;;;;;;24.10;46.00;;;;;;1511321;79;714;-70
2022/02/27 00:42:17;;;;;;;;;;;24.10;46.00;;;;;;1511249;78;788;-70
2022/02/27 00:44:19;;;;;;;;;;;24.00;45.90;;;;;;1511260;79;738;-70
2022/02/27 00:46:21;;;;;;;;;;;24.00;45.90;;;;;;1511904;77;1145;-70
2022/02/27 00:48:23;;;;;;;;;;;24.10;46.00;;;;;;1511294;79;646;-70
2022/02/27 00:50:25;;;;;;;;;;;24.00;45.90;;;;;;1511921;77;700;-71
2022/02/27 00:52:27;;;;;;;;;;;24.00;45.90;;;;;;1511269;79;736;-70
2022/02/27 00:54:31;;;;;;;;;;;24.00;45.90;;;;;;1511107;79;1941;-70
2022/02/27 00:56:33;;;;;;;;;;;24.00;46.00;;;;;;1511175;79;1146;-71
2022/02/27 00:58:35;;;;;;;;;;;24.00;46.00;;;;;;1511872;77;1076;-69
2022/02/27 01:00:37;;;;;;;;;;;24.00;46.00;;;;;;1511166;79;741;-70
2022/02/27 01:02:39;;;;;;;;;;;24.00;45.90;;;;;;1511316;79;710;-70
2022/02/27 01:04:41;;;;;;;;;;;24.00;45.90;;;;;;1511294;79;720;-71
2022/02/27 01:06:42;;;;;;;;;;;24.00;45.90;;;;;;1511747;77;1136;-70
2022/02/27 01:08:44;;;;;;;;;;;24.00;45.90;;;;;;1511240;77;667;-71
2022/02/27 01:10:46;;;;;;;;;;;24.00;45.90;;;;;;1511242;79;703;-70
2022/02/27 01:12:48;;;;;;;;;;;24.00;45.80;;;;;;1511229;78;676;-71
2022/02/27 01:14:50;;;;;;;;;;;24.00;45.80;;;;;;1511679;77;1943;-70
2022/02/27 01:16:52;;;;;;;;;;;24.00;45.80;;;;;;1509948;79;1106;-70
2022/02/27 01:18:54;;;;;;;;;;;24.00;45.80;;;;;;1510153;79;719;-70
2022/02/27 01:20:56;;;;;;;;;;;24.10;45.90;;;;;;1511779;77;738;-71
2022/02/27 01:22:57;;;;;;;;;;;24.00;45.80;;;;;;1511257;79;741;-70
2022/02/27 01:24:59;;;;;;;;;;;24.00;45.80;;;;;;1516105;77;710;-70
2022/02/27 01:27:01;;;;;;;;;;;24.00;45.80;;;;;;1536450;77;1151;-70
2022/02/27 01:29:03;;;;;;;;;;;24.00;45.80;;;;;;1486799;80;732;-71
2022/02/27 01:31:07;;;;;;;;;;;24.00;45.70;;;;;;1486746;80;707;-70
2022/02/27 01:33:09;;;;;;;;;;;23.90;45.80;;;;;;1486693;80;708;-70
2022/02/27 01:35:11;;;;;;;;;;;23.90;45.80;;;;;;1495050;77;1947;-70
2022/02/27 01:37:12;;;;;;;;;;;24.00;45.80;;;;;;1506499;77;1076;-70
2022/02/27 01:39:14;;;;;;;;;;;24.00;45.80;;;;;;1511211;78;775;-70
2022/02/27 01:41:16;;;;;;;;;;;24.00;45.80;;;;;;1511224;77;629;-71
2022/02/27 01:43:18;;;;;;;;;;;24.00;45.80;;;;;;1511356;79;743;-72
2022/02/27 01:45:20;;;;;;;;;;;24.00;45.80;;;;;;1511865;77;1152;-71
2022/02/27 01:47:22;;;;;;;;;;;24.00;45.80;;;;;;1511400;78;719;-71
2022/02/27 01:49:24;;;;;;;;;;;23.90;45.80;;;;;;1511921;77;789;-73
2022/02/27 01:51:26;;;;;;;;;;;23.90;45.80;;;;;;1511218;78;714;-71
2022/02/27 01:53:28;;;;;;;;;;;23.90;45.70;;;;;;1511403;79;752;-70
2022/02/27 01:55:30;;;;;;;;;;;23.90;45.80;;;;;;1511192;79;1945;-70
2022/02/27 01:57:32;;;;;;;;;;;24.00;45.80;;;;;;1511894;77;777;-70
2022/02/27 01:59:34;;;;;;;;;;;23.90;45.80;;;;;;1511382;78;781;-70
2022/02/27 02:01:36;;;;;;;;;;;24.00;45.80;;;;;;1511299;79;726;-71
2022/02/27 02:03:37;;;;;;;;;;;24.00;45.90;;;;;;1511401;77;643;-71
2022/02/27 02:05:39;;;;;;;;;;;23.90;45.80;;;;;;1511934;77;1090;-71
2022/02/27 02:07:41;;;;;;;;;;;23.90;45.90;;;;;;1511228;78;728;-70
2022/02/27 02:09:43;;;;;;;;;;;24.00;45.90;;;;;;1511347;79;788;-70
2022/02/27 02:11:45;;;;;;;;;;;23.90;45.90;;;;;;1511376;79;712;-70
2022/02/27 02:13:47;;;;;;;;;;;23.90;45.90;;;;;;1511601;77;781;-71
2022/02/27 02:15:56;;;;;;;;;;;24.00;45.90;;;;;;1522612;77;1947;-70
2022/02/27 02:17:58;;;;;;;;;;;24.00;45.90;;;;;;1527484;77;846;-70
2022/02/27 02:20:00;;;;;;;;;;;23.90;45.80;;;;;;1518785;77;668;-71
2022/02/27 02:22:02;;;;;;;;;;;23.90;45.80;;;;;;1486927;79;801;-70
2022/02/27 02:24:04;;;;;;;;;;;23.90;45.80;;;;;;1504991;79;735;-70
2022/02/27 02:26:06;;;;;;;;;;;23.90;45.90;;;;;;1530190;77;1175;-70
2022/02/27 02:28:08;;;;;;;;;;;24.00;45.90;;;;;;1535739;77;793;-70
2022/02/27 02:30:10;;;;;;;;;;;24.00;45.90;;;;;;1511379;79;664;-70
2022/02/27 02:32:12;;;;;;;;;;;23.90;45.90;;;;;;1511227;79;677;-70
2022/02/27 02:34:14;;;;;;;;;;;23.90;45.90;;;;;;1511322;79;1949;-71
2022/02/27 02:36:16;;;;;;;;;;;23.90;46.00;;;;;;1511161;79;1130;-70
2022/02/27 02:38:18;;;;;;;;;;;23.90;45.90;;;;;;1511906;77;678;-69
2022/02/27 02:40:22;;;;;;;;;;;23.90;45.90;;;;;;1497789;77;660;-71
2022/02/27 02:42:24;;;;;;;;;;;23.90;46.00;;;;;;1498089;77;808;-71
2022/02/27 02:44:26;;;;;;;;;;;23.90;46.00;;;;;;1498180;77;760;-69
2022/02/27 02:46:29;;;;;;;;;;;23.90;46.00;;;;;;1496319;77;1165;-69
2022/02/27 02:48:31;;;;;;;;;;;23.80;45.90;;;;;;1495876;77;697;-70
2022/02/27 02:50:32;;;;;;;;;;;23.90;46.00;;;;;;1501713;77;575;-70
2022/02/27 02:52:34;;;;;;;;;;;23.80;45.90;;;;;;1495372;77;803;-71
2022/02/27 02:54:37;;;;;;;;;;;23.80;45.80;;;;;;1498801;77;1942;-69
2022/02/27 02:56:39;;;;;;;;;;;23.90;45.90;;;;;;1502430;77;1142;-70
2022/02/27 02:58:41;;;;;;;;;;;23.80;45.90;;;;;;1481779;79;711;-73
2022/02/27 03:00:43;;;;;;;;;;;23.80;45.90;;;;;;1502393;77;789;-69
2022/02/27 03:02:45;;;;;;;;;;;23.80;45.80;;;;;;1498444;77;748;-70
2022/02/27 03:04:47;;;;;;;;;;;23.80;45.90;;;;;;1498262;77;749;-71
2022/02/27 03:06:49;;;;;;;;;;;23.80;45.80;;;;;;1503931;77;1131;-69
2022/02/27 03:08:52;;;;;;;;;;;23.80;45.90;;;;;;1501967;77;726;-70
2022/02/27 03:10:54;;;;;;;;;;;23.80;45.90;;;;;;1494173;77;749;-71
2022/02/27 03:12:55;;;;;;;;;;;23.80;45.90;;;;;;1494328;77;731;-71
2022/02/27 03:14:57;;;;;;;;;;;23.70;45.90;;;;;;1494218;77;1942;-72
2022/02/27 03:16:59;;;;;;;;;;;23.80;46.00;;;;;;1496973;77;1052;-70
2022/02/27 03:19:01;;;;;;;;;;;23.80;46.00;;;;;;1498499;77;711;-70
2022/02/27 03:21:05;;;;;;;;;;;23.70;46.00;;;;;;1504102;77;708;-69
2022/02/27 03:23:07;;;;;;;;;;;23.90;46.20;;;;;;1502064;77;789;-70
2022/02/27 03:25:09;;;;;;;;;;;23.80;46.20;;;;;;1496991;77;716;-70
2022/02/27 03:27:11;;;;;;;;;;;23.80;46.20;;;;;;1499326;77;1129;-70
2022/02/27 03:29:13;;;;;;;;;;;23.80;46.30;;;;;;1505008;77;682;-69
2022/02/27 03:31:15;;;;;;;;;;;23.80;46.30;;;;;;1509507;77;683;-71
2022/02/27 03:33:17;;;;;;;;;;;23.90;46.40;;;;;;1506402;77;710;-71
2022/02/27 03:35:19;;;;;;;;;;;23.80;46.30;;;;;;1495831;77;1940;-71
2022/02/27 03:37:21;;;;;;;;;;;23.90;46.30;;;;;;1497270;77;713;-70
2022/02/27 03:39:23;;;;;;;;;;;23.90;46.30;;;;;;1497333;77;736;-70
2022/02/27 03:41:25;;;;;;;;;;;23.90;46.30;;;;;;1502708;77;715;-69
2022/02/27 03:43:27;;;;;;;;;;;24.00;46.20;;;;;;1504764;77;760;-72
2022/02/27 03:45:29;;;;;;;;;;;24.10;46.30;;;;;;1506909;77;1148;-71
2022/02/27 03:47:31;;;;;;;;;;;24.10;46.30;;;;;;1498712;77;744;-70
2022/02/27 03:49:33;;;;;;;;;;;24.10;46.20;;;;;;1505818;73;3009;-74
2022/02/27 03:51:35;;;;;;;;;;;24.20;46.00;;;;;;1593418;74;701;-74
2022/02/27 03:53:37;;;;;;;;;;;24.20;46.00;;;;;;1597806;74;660;-76
2022/02/27 03:55:38;;;;;;;;;;;24.20;46.00;;;;;;1599842;74;1941;-74
2022/02/27 03:57:40;;;;;;;;;;;24.30;46.10;;;;;;1598089;74;740;-75
2022/02/27 03:59:42;;;;;;;;;;;24.30;46.00;;;;;;1596640;73;1248;-77
2022/02/27 04:01:44;;;;;;;;;;;24.40;46.00;;;;;;1583881;74;744;-74
2022/02/27 04:03:46;;;;;;;;;;;24.30;46.00;;;;;;1579296;74;720;-74
2022/02/27 04:05:48;;;;;;;;;;;24.40;45.80;;;;;;1593006;74;818;-74
2022/02/27 04:07:50;;;;;;;;;;;24.40;45.90;;;;;;1573560;74;716;-73
2022/02/27 04:09:52;;;;;;;;;;;24.40;45.90;;;;;;1581158;74;1093;-74
2022/02/27 04:11:53;;;;;;;;;;;24.40;45.80;;;;;;1581529;74;694;-74
2022/02/27 04:13:55;;;;;;;;;;;24.40;45.80;;;;;;1579556;74;716;-76
2022/02/27 04:15:57;;;;;;;;;;;24.40;45.90;;;;;;1588046;74;1938;-75
2022/02/27 04:17:59;;;;;;;;;;;24.50;45.90;;;;;;1579214;74;759;-75
2022/02/27 04:20:01;;;;;;;;;;;24.50;45.90;;;;;;1584006;74;1139;-75
2022/02/27 04:22:03;;;;;;;;;;;24.50;45.90;;;;;;1587748;74;760;-75
2022/02/27 04:24:05;;;;;;;;;;;24.50;46.00;;;;;;1581277;74;811;-74
2022/02/27 04:26:07;;;;;;;;;;;24.50;45.90;;;;;;1586006;74;722;-74
2022/02/27 04:28:08;;;;;;;;;;;24.50;45.90;;;;;;1579717;74;892;-75
2022/02/27 04:30:10;;;;;;;;;;;24.50;45.90;;;;;;1579751;73;1175;-75
2022/02/27 04:32:12;;;;;;;;;;;24.60;46.00;;;;;;1583906;74;726;-76
2022/02/27 04:34:14;;;;;;;;;;;24.50;45.90;;;;;;1587343;74;748;-74
2022/02/27 04:36:16;;;;;;;;;;;24.60;45.90;;;;;;1577734;74;1946;-74
2022/02/27 04:38:18;;;;;;;;;;;24.50;45.90;;;;;;1580499;74;813;-74
2022/02/27 04:40:20;;;;;;;;;;;24.50;45.90;;;;;;1590376;73;1146;-73
2022/02/27 04:42:22;;;;;;;;;;;24.60;45.90;;;;;;1590456;74;726;-73
2022/02/27 04:44:23;;;;;;;;;;;24.50;45.90;;;;;;1594887;74;707;-73
2022/02/27 04:46:25;;;;;;;;;;;24.60;45.80;;;;;;1576639;74;673;-75
2022/02/27 04:48:27;;;;;;;;;;;24.50;45.90;;;;;;1585645;74;728;-78
2022/02/27 04:50:29;;;;;;;;;;;24.60;45.80;;;;;;1578903;74;1131;-75
2022/02/27 04:52:31;;;;;;;;;;;24.50;45.80;;;;;;1588224;74;618;-75
2022/02/27 04:54:35;;;;;;;;;;;24.50;45.70;;;;;;1572929;74;790;-75
2022/02/27 04:56:36;;;;;;;;;;;24.60;45.70;;;;;;1584036;74;1929;-75
2022/02/27 04:58:38;;;;;;;;;;;24.60;45.70;;;;;;1576776;74;1074;-73
2022/02/27 05:00:40;;;;;;;;;;;24.60;45.70;;;;;;1579646;74;1151;-74
2022/02/27 05:02:42;;;;;;;;;;;24.60;45.70;;;;;;1580769;74;730;-74
2022/02/27 05:04:44;;;;;;;;;;;24.60;45.50;;;;;;1590265;74;718;-74
2022/02/27 05:06:46;;;;;;;;;;;24.50;45.60;;;;;;1585200;74;735;-74
2022/02/27 05:08:47;;;;;;;;;;;24.60;45.60;;;;;;1577410;74;767;-74
2022/02/27 05:10:49;;;;;;;;;;;24.60;45.50;;;;;;1577977;74;1147;-74
2022/02/27 05:12:51;;;;;;;;;;;24.60;45.50;;;;;;1582795;74;728;-74
2022/02/27 05:14:53;;;;;;;;;;;24.60;45.50;;;;;;1579049;74;680;-72
2022/02/27 05:16:55;;;;;;;;;;;24.60;45.50;;;;;;1572916;74;1929;-76
2022/02/27 05:18:57;;;;;;;;;;;24.60;45.50;;;;;;1574985;74;758;-74
2022/02/27 05:20:59;;;;;;;;;;;24.60;45.40;;;;;;1583455;74;1131;-74
2022/02/27 05:23:01;;;;;;;;;;;24.60;45.40;;;;;;1578196;74;717;-74
2022/02/27 05:25:02;;;;;;;;;;;24.70;45.50;;;;;;1583924;74;674;-75
2022/02/27 05:27:04;;;;;;;;;;;24.60;45.40;;;;;;1570053;74;793;-75
2022/02/27 05:29:06;;;;;;;;;;;24.60;45.40;;;;;;1569720;74;725;-74
2022/02/27 05:31:08;;;;;;;;;;;24.60;45.40;;;;;;1570539;74;1141;-75
2022/02/27 05:33:12;;;;;;;;;;;24.60;45.30;;;;;;1572909;74;788;-75
2022/02/27 05:35:14;;;;;;;;;;;24.70;45.50;;;;;;1572956;74;1938;-76
2022/02/27 05:37:16;;;;;;;;;;;24.70;45.50;;;;;;1570626;74;747;-76
2022/02/27 05:39:18;;;;;;;;;;;24.60;45.20;;;;;;1581316;74;1138;-74
2022/02/27 05:41:20;;;;;;;;;;;24.60;45.30;;;;;;1567571;74;947;-74
2022/02/27 05:43:22;;;;;;;;;;;24.70;45.40;;;;;;1581693;74;791;-74
2022/02/27 05:45:23;;;;;;;;;;;24.60;45.40;;;;;;1576047;74;787;-74
2022/02/27 05:47:25;;;;;;;;;;;24.60;45.40;;;;;;1576546;74;753;-74
2022/02/27 05:49:27;;;;;;;;;;;24.70;45.60;;;;;;1584082;74;1106;-76
2022/02/27 05:51:29;;;;;;;;;;;24.60;45.40;;;;;;1580840;74;687;-74
2022/02/27 05:53:31;;;;;;;;;;;24.70;45.50;;;;;;1581195;74;772;-75
2022/02/27 05:55:33;;;;;;;;;;;24.70;45.50;;;;;;1580375;74;1946;-72
2022/02/27 05:57:35;;;;;;;;;;;24.70;45.50;;;;;;1581218;74;783;-73
2022/02/27 05:59:37;;;;;;;;;;;24.70;45.50;;;;;;1586661;74;1094;-76
2022/02/27 06:01:38;;;;;;;;;;;24.70;45.50;;;;;;1546420;75;763;-75
2022/02/27 06:03:40;;;;;;;;;;;24.80;45.20;;;;;;1546225;77;718;-75
2022/02/27 06:05:43;;;;;;;;;;;24.80;45.00;;;;;;1546317;77;678;-72
2022/02/27 06:07:44;;;;;;;;;;;24.80;44.90;;;;;;1556537;75;678;-74
2022/02/27 06:09:46;;;;;;;;;;;24.80;44.70;;;;;;1572618;74;1137;-75
2022/02/27 06:11:48;;;;;;;;;;;24.80;44.80;;;;;;1576328;74;753;-77
2022/02/27 06:13:50;;;;;;;;;;;24.80;44.70;;;;;;1559441;75;725;-78
2022/02/27 06:15:52;;;;;;;;;;;24.70;44.70;;;;;;1572597;75;1969;-75
2022/02/27 06:17:54;;;;;;;;;;;24.80;44.70;;;;;;1572559;75;752;-76
2022/02/27 06:19:56;;;;;;;;;;;24.80;44.70;;;;;;1572624;74;1115;-75
2022/02/27 06:21:58;;;;;;;;;;;24.80;44.60;;;;;;1572781;75;726;-76
2022/02/27 06:24:00;;;;;;;;;;;24.80;44.70;;;;;;1573689;74;781;-76
2022/02/27 06:26:02;;;;;;;;;;;24.80;44.70;;;;;;1559337;75;710;-75
2022/02/27 06:28:04;;;;;;;;;;;24.80;44.70;;;;;;1572847;75;668;-73
2022/02/27 06:30:06;;;;;;;;;;;24.80;44.70;;;;;;1572536;74;1146;-75
2022/02/27 06:32:08;;;;;;;;;;;24.80;44.60;;;;;;1572739;75;737;-75
2022/02/27 06:34:11;;;;;;;;;;;24.90;44.70;;;;;;1572694;75;783;-73
2022/02/27 06:36:13;;;;;;;;;;;24.80;44.60;;;;;;1572625;75;1934;-75
2022/02/27 06:38:15;;;;;;;;;;;24.80;44.60;;;;;;1587650;74;743;-74
2022/02/27 06:40:18;;;;;;;;;;;24.80;44.50;;;;;;1572610;74;1172;-75
2022/02/27 06:42:20;;;;;;;;;;;24.90;44.50;;;;;;1572539;75;847;-74
2022/02/27 06:44:22;;;;;;;;;;;24.80;44.40;;;;;;1572727;75;722;-75
2022/02/27 06:46:23;;;;;;;;;;;24.80;44.40;;;;;;1572594;75;742;-74
2022/02/27 06:48:25;;;;;;;;;;;24.80;44.30;;;;;;1572703;75;687;-73
2022/02/27 06:50:27;;;;;;;;;;;24.80;44.30;;;;;;1572505;74;1297;-74
2022/02/27 06:52:29;;;;;;;;;;;24.70;44.40;;;;;;1572775;75;773;-74
2022/02/27 06:54:31;;;;;;;;;;;24.70;44.40;;;;;;1575694;74;718;-74
2022/02/27 06:56:33;;;;;;;;;;;24.70;44.40;;;;;;1562264;74;1949;-74
2022/02/27 06:58:35;;;;;;;;;;;24.70;44.40;;;;;;1571542;75;748;-73
2022/02/27 07:00:37;;;;;;;;;;;24.70;44.40;;;;;;1545279;76;1151;-74
2022/02/27 07:02:39;;;;;;;;;;;24.60;44.30;;;;;;1557122;76;737;-74
2022/02/27 07:04:41;;;;;;;;;;;24.60;44.40;;;;;;1556958;76;699;-73
2022/02/27 07:06:43;;;;;;;;;;;24.60;44.30;;;;;;1557117;76;785;-73
2022/02/27 07:08:44;;;;;;;;;;;24.60;44.40;;;;;;1551206;76;694;-73
2022/02/27 07:10:46;;;;;;;;;;;24.60;44.30;;;;;;1531085;76;1177;-73
2022/02/27 07:12:48;;;;;;;;;;;24.50;44.30;;;;;;1531223;78;636;-73
2022/02/27 07:14:50;;;;;;;;;;;24.50;44.30;;;;;;1536842;75;770;-74
2022/02/27 07:16:52;;;;;;;;;;;24.70;44.40;;;;;;1583960;75;1934;-77
2022/02/27 07:18:55;;;;;;;;;;;24.50;44.30;;;;;;1559060;75;845;-74
2022/02/27 07:20:57;;;;;;;;;;;24.50;44.30;;;;;;1556895;75;1128;-73
2022/02/27 07:22:59;;;;;;;;;;;24.50;44.20;;;;;;1556976;76;725;-73
2022/02/27 07:25:01;;;;;;;;;;;24.50;44.20;;;;;;1557046;76;631;-73
2022/02/27 07:27:03;;;;;;;;;;;24.50;44.30;;;;;;1556276;75;730;-73
2022/02/27 07:29:05;;;;;;;;;;;24.50;44.20;;;;;;1556157;75;732;-75
2022/02/27 07:31:07;;;;;;;;;;;24.60;44.20;;;;;;1556746;75;1187;-73
2022/02/27 07:33:08;;;;;;;;;;;24.60;44.20;;;;;;1556475;75;785;-74
2022/02/27 07:35:10;;;;;;;;;;;24.50;44.20;;;;;;1556674;75;799;-73
2022/02/27 07:37:12;;;;;;;;;;;24.50;44.20;;;;;;1560643;75;1929;-72
2022/02/27 07:39:14;;;;;;;;;;;24.50;44.10;;;;;;1557888;75;776;-73
2022/02/27 07:41:16;;;;;;;;;;;24.50;44.10;;;;;;1557255;75;873;-73
2022/02/27 07:43:18;;;;;;;;;;;24.50;44.10;;;;;;1557749;75;743;-73
2022/02/27 07:45:21;;;;;;;;;;;24.50;44.10;;;;;;1560764;75;729;-74
2022/02/27 07:47:23;;;;;;;;;;;24.50;44.00;;;;;;1556718;75;747;-73
2022/02/27 07:49:25;;;;;;;;;;;24.50;44.00;;;;;;1558737;75;1143;-74
2022/02/27 07:51:27;;;;;;;;;;;24.50;44.10;;;;;;1559066;75;730;-74
2022/02/27 07:53:29;;;;;;;;;;;24.50;44.00;;;;;;1561359;75;782;-73
2022/02/27 07:55:31;;;;;;;;;;;24.50;44.00;;;;;;1568679;75;681;-74
2022/02/27 07:57:33;;;;;;;;;;;24.50;44.00;;;;;;1562672;75;1938;-74
2022/02/27 07:59:34;;;;;;;;;;;24.50;44.00;;;;;;1565094;75;1191;-74
2022/02/27 08:01:36;;;;;;;;;;;24.50;44.00;;;;;;1556479;76;759;-74
2022/02/27 08:03:38;;;;;;;;;;;24.50;44.10;;;;;;1561667;75;912;-74
2022/02/27 08:05:40;;;;;;;;;;;24.50;44.00;;;;;;1557001;75;749;-73
2022/02/27 08:07:42;;;;;;;;;;;24.50;44.10;;;;;;1556891;75;794;-74
2022/02/27 08:09:44;;;;;;;;;;;24.50;44.00;;;;;;1566027;75;1114;-75
2022/02/27 08:11:46;;;;;;;;;;;24.50;44.00;;;;;;1556775;75;755;-73
2022/02/27 08:13:48;;;;;;;;;;;24.50;44.00;;;;;;1566040;75;748;-74
2022/02/27 08:15:50;;;;;;;;;;;24.40;43.90;;;;;;1567237;75;747;-74
2022/02/27 08:17:53;;;;;;;;;;;24.50;44.00;;;;;;1561628;75;1916;-74
2022/02/27 08:19:55;;;;;;;;;;;24.50;43.90;;;;;;1566076;75;1084;-74
2022/02/27 08:21:57;;;;;;;;;;;24.50;44.00;;;;;;1561482;75;788;-74
2022/02/27 08:23:58;;;;;;;;;;;24.50;43.90;;;;;;1561112;75;877;-74
2022/02/27 08:26:00;;;;;;;;;;;24.50;43.90;;;;;;1560765;75;728;-75
2022/02/27 08:28:02;;;;;;;;;;;24.50;43.80;;;;;;1543969;76;719;-74
2022/02/27 08:30:04;;;;;;;;;;;24.40;43.70;;;;;;1531080;77;1138;-73
2022/02/27 08:32:06;;;;;;;;;;;24.40;43.70;;;;;;1531071;78;743;-73
2022/02/27 08:34:09;;;;;;;;;;;24.40;43.70;;;;;;1552722;75;758;-73
2022/02/27 08:36:15;;;;;;;;;;;24.40;43.60;;;;;;1550774;76;1907;-73
2022/02/27 08:38:15;;;;;;;;;;;24.50;43.80;;;;;;1557956;75;1123;-73
2022/02/27 08:40:17;;;;;;;;;;;24.40;43.60;;;;;;1556875;75;1191;-73
2022/02/27 08:42:18;;;;;;;;;;;24.50;43.60;;;;;;1557059;76;712;-73
2022/02/27 08:44:20;;;;;;;;;;;24.50;43.60;;;;;;1557121;76;720;-73
2022/02/27 08:46:22;;;;;;;;;;;24.50;43.60;;;;;;1556784;76;727;-73
2022/02/27 08:48:24;;;;;;;;;;;24.50;43.40;;;;;;1557109;76;764;-73
2022/02/27 08:50:26;;;;;;;;;;;24.50;43.40;;;;;;1541719;75;1156;-74
2022/02/27 08:52:28;;;;;;;;;;;24.60;43.30;;;;;;1532405;76;766;-73
2022/02/27 08:54:30;;;;;;;;;;;24.60;43.30;;;;;;1531173;78;687;-74
2022/02/27 08:56:32;;;;;;;;;;;24.60;43.30;;;;;;1565337;75;1924;-75
2022/02/27 08:58:34;;;;;;;;;;;24.60;43.30;;;;;;1544016;76;743;-73
2022/02/27 09:00:36;;;;;;;;;;;24.60;43.10;;;;;;1545254;76;1172;-73
2022/02/27 09:02:38;;;;;;;;;;;24.60;43.10;;;;;;1557042;76;710;-73
2022/02/27 09:04:39;;;;;;;;;;;24.60;43.10;;;;;;1557127;76;753;-73
2022/02/27 09:06:41;;;;;;;;;;;24.60;43.10;;;;;;1557021;76;711;-74
2022/02/27 09:08:43;;;;;;;;;;;24.60;43.00;;;;;;1556879;76;657;-74
2022/02/27 09:10:45;;;;;;;;;;;24.60;43.00;;;;;;1557033;75;1122;-74
2022/02/27 09:12:48;;;;;;;;;;;24.70;43.10;;;;;;1556906;76;720;-73
2022/02/27 09:14:50;;;;;;;;;;;24.60;43.00;;;;;;1559785;75;775;-73
2022/02/27 09:16:52;;;;;;;;;;;24.70;43.00;;;;;;1583978;75;1910;-73
2022/02/27 09:18:54;;;;;;;;;;;24.70;43.00;;;;;;1557178;75;765;-75
2022/02/27 09:20:55;;;;;;;;;;;24.70;43.00;;;;;;1556919;75;1159;-73
2022/02/27 09:22:57;;;;;;;;;;;24.70;43.00;;;;;;1557092;76;725;-73
2022/02/27 09:24:59;;;;;;;;;;;24.70;42.90;;;;;;1556937;76;714;-73
2022/02/27 09:27:01;;;;;;;;;;;24.70;42.90;;;;;;1557018;76;781;-73
2022/02/27 09:29:03;;;;;;;;;;;24.70;42.90;;;;;;1556675;75;678;-73
2022/02/27 09:31:05;;;;;;;;;;;24.70;42.80;;;;;;1554416;75;1067;-73
2022/02/27 09:33:07;;;;;;;;;;;24.70;42.80;;;;;;1558147;75;721;-75
2022/02/27 09:35:08;;;;;;;;;;;24.70;42.80;;;;;;1564017;75;739;-75
2022/02/27 09:37:10;;;;;;;;;;;24.70;42.80;;;;;;1555952;75;1928;-75
2022/02/27 09:39:12;;;;;;;;;;;24.70;42.80;;;;;;1556692;75;766;-76
2022/02/27 09:41:15;;;;;;;;;;;24.80;42.80;;;;;;1556161;75;1154;-76
2022/02/27 09:43:17;;;;;;;;;;;24.80;42.80;;;;;;1561103;75;804;-76
2022/02/27 09:45:20;;;;;;;;;;;24.70;42.70;;;;;;1556073;75;830;-76
2022/02/27 09:47:22;;;;;;;;;;;24.70;42.70;;;;;;1553190;75;731;-75
2022/02/27 09:49:24;;;;;;;;;;;24.80;42.70;;;;;;1555398;75;1129;-76
2022/02/27 09:51:26;;;;;;;;;;;24.80;42.70;;;;;;1560722;72;2072;-70
2022/02/27 09:53:28;;;;;;;;;;;24.70;42.70;;;;;;1572520;75;758;-70
2022/02/27 09:55:30;;;;;;;;;;;24.80;42.60;;;;;;1570614;75;747;-73
2022/02/27 09:57:32;;;;;;;;;;;24.80;42.70;;;;;;1576741;75;1943;-72
2022/02/27 09:59:34;;;;;;;;;;;24.80;42.70;;;;;;1550383;76;988;-70
2022/02/27 10:01:37;;;;;;;;;;;24.70;42.60;;;;;;1565894;74;1191;-70
2022/02/27 10:03:40;;;;;;;;;;;24.70;42.70;;;;;;1567992;74;1794;-71
2022/02/27 10:05:42;;;;;;;;;;;24.80;42.60;;;;;;1569152;74;780;-72
2022/02/27 10:07:46;;;;;;;;;;;24.80;42.60;;;;;;1557519;74;726;-70
2022/02/27 10:09:48;;;;;;;;;;;24.70;42.60;;;;;;1563386;74;1791;-70
2022/02/27 10:11:50;;;;;;;;;;;24.80;42.60;;;;;;1566599;74;767;-71
2022/02/27 10:13:54;;;;;;;;;;;24.80;42.60;;;;;;1562629;74;786;-70
2022/02/27 10:15:57;;;;;;;;;;;24.70;42.70;;;;;;1563003;74;1556;-70
2022/02/27 10:17:59;;;;;;;;;;;24.80;42.60;;;;;;1557431;74;1959;-72
2022/02/27 10:20:03;;;;;;;;;;;24.80;42.60;;;;;;1564994;74;1160;-73
2022/02/27 10:22:06;;;;;;;;;;;24.70;42.60;;;;;;1563952;74;764;-71
2022/02/27 10:24:11;;;;;;;;;;;24.80;42.60;;;;;;1557957;74;752;-70
2022/02/27 10:26:21;;;;;;;;;;;24.80;42.60;;;;;;1562103;74;782;-69
2022/02/27 10:28:23;;;;;;;;;;;24.80;42.60;;;;;;1561898;74;778;-70
2022/02/27 10:30:28;;;;;;;;;;;24.80;42.60;;;;;;1564597;74;1117;-70
2022/02/27 10:32:30;;;;;;;;;;;24.80;42.60;;;;;;1559192;74;786;-71
2022/02/27 10:34:32;;;;;;;;;;;24.80;42.60;;;;;;1551626;75;1042;-72
2022/02/27 10:36:34;;;;;;;;;;;24.80;42.60;;;;;;1559931;74;792;-70
2022/02/27 10:40:41;;;;;;;;;;;24.80;42.60;;;;;;1562412;74;1150;-72
2022/02/27 10:42:43;;;;;;;;;;;24.80;42.50;;;;;;1572112;74;976;-69
2022/02/27 10:44:47;;;;;;;;;;;24.80;42.50;;;;;;1555108;76;1217;-70
2022/02/27 10:46:48;;;;;;;;;;;24.80;42.50;;;;;;1562563;74;1812;-74
2022/02/27 10:48:50;;;;;;;;;;;24.80;42.60;;;;;;1564224;74;776;-70
2022/02/27 10:50:52;;;;;;;;;;;24.80;42.50;;;;;;1567570;74;1180;-70
2022/02/27 10:52:54;;;;;;;;;;;24.80;42.50;;;;;;1548232;75;1213;-71
2022/02/27 10:54:57;;;;;;;;;;;24.80;42.40;;;;;;1562582;74;750;-70
2022/02/27 10:56:59;;;;;;;;;;;24.80;42.50;;;;;;1562218;74;774;-69
2022/02/27 10:59:02;;;;;;;;;;;24.80;42.40;;;;;;1555696;74;1938;-68
2022/02/27 11:01:08;;;;;;;;;;;24.80;42.50;;;;;;1575580;74;2121;-69
2022/02/27 11:03:10;;;;;;;;;;;24.80;42.50;;;;;;1581120;74;774;-71
2022/02/27 11:05:13;;;;;;;;;;;24.80;42.50;;;;;;1575730;75;741;-70
2022/02/27 11:07:15;;;;;;;;;;;24.80;42.50;;;;;;1575726;74;730;-70
2022/02/27 11:09:17;;;;;;;;;;;24.80;42.50;;;;;;1576724;75;725;-70
2022/02/27 11:11:19;;;;;;;;;;;24.80;42.50;;;;;;1571443;75;1142;-70
2022/02/27 11:13:21;;;;;;;;;;;24.80;42.50;;;;;;1573696;75;710;-71
2022/02/27 11:15:23;;;;;;;;;;;24.80;42.40;;;;;;1570695;74;841;-70
2022/02/27 11:17:25;;;;;;;;;;;24.80;42.50;;;;;;1552498;75;1915;-70
2022/02/27 11:19:27;;;;;;;;;;;24.80;42.40;;;;;;1564907;75;680;-73
2022/02/27 11:21:28;;;;;;;;;;;24.80;42.40;;;;;;1576757;75;1136;-72
2022/02/27 11:23:30;;;;;;;;;;;24.80;42.40;;;;;;1569333;75;785;-72
2022/02/27 11:25:32;;;;;;;;;;;24.80;42.40;;;;;;1573920;75;736;-71
2022/02/27 11:27:35;;;;;;;;;;;24.80;42.30;;;;;;1575833;75;702;-71
2022/02/27 11:29:36;;;;;;;;;;;24.90;42.40;;;;;;1576823;74;687;-72
2022/02/27 11:31:39;;;;;;;;;;;24.80;42.30;;;;;;1574090;75;1082;-71
2022/02/27 11:33:41;;;;;;;;;;;24.80;42.30;;;;;;1576767;75;686;-69
2022/02/27 11:35:44;;;;;;;;;;;24.90;42.30;;;;;;1563843;74;781;-68
2022/02/27 11:37:52;;;;;;;;;;;24.80;42.30;;;;;;1575603;75;1912;-72
2022/02/27 11:40:31;;;;;;;;;;;24.80;42.30;;;;;;1574077;75;1186;-71
2022/02/27 11:42:49;;;;;;;;;;;24.80;42.30;;;;;;1571438;75;719;-71
2022/02/27 11:44:51;;;;;;;;;;;24.80;42.40;;;;;;1562798;75;643;-75
2022/02/27 11:46:54;;;;;;;;;;;24.80;42.30;;;;;;1574406;75;768;-70
2022/02/27 11:49:01;;;;;;;;;;;24.90;42.30;;;;;;1576364;75;1165;-71
2022/02/27 11:51:03;;;;;;;;;;;24.90;42.20;;;;;;1561790;74;2187;-71
2022/02/27 11:53:06;;;;;;;;;;;24.90;42.10;;;;;;1562494;75;703;-71
2022/02/27 11:55:10;;;;;;;;;;;24.90;42.10;;;;;;1561902;75;1703;-70
2022/02/27 11:57:13;;;;;;;;;;;24.90;42.00;;;;;;1566819;74;1799;-70
2022/02/27 11:59:15;;;;;;;;;;;24.90;42.00;;;;;;1561135;75;1930;-70
2022/02/27 12:01:19;;;;;;;;;;;24.90;42.10;;;;;;1561317;75;1158;-71
2022/02/27 12:03:31;;;;;;;;;;;25.00;42.00;;;;;;1569346;75;1644;-70
2022/02/27 12:05:43;;;;;;;;;;;25.00;42.00;;;;;;1558615;75;706;-72
2022/02/27 12:07:46;;;;;;;;;;;25.00;41.90;;;;;;1559653;75;733;-70
2022/02/27 12:09:52;;;;;;;;;;;25.00;42.00;;;;;;1547087;75;1252;-69
2022/02/27 12:11:54;;;;;;;;;;;24.80;41.80;;;;;;1562801;75;839;-70